Time;durP1;ratioP1;P1;durP2;ratioP2;P2;SDS_P1;SDS_P2;PMS_P1;PMS_P2;Temp;Humidity;BMP_temperature;BMP_pressure;BME280_temperature;BME280_humidity;BME280_pressure;Samples;Min_cycle;Max_cycle;Signal;HPM_P1;HPM_P2
2023/01/10 00:00:36;;;;;;;130.02;39.83;;;;;;;;;;4956914;28;20053;-40
2023/01/10 00:03:04;;;;;;;123.70;39.92;;;;;;;;;;4955305;28;20079;-41
2023/01/10 00:05:30;;;;;;;127.80;37.78;;;;;;;;;;4958931;28;20062;-40
2023/01/10 00:07:57;;;;;;;126.80;39.17;;;;;;;;;;4958952;28;20477;-40
2023/01/10 00:10:24;;;;;;;135.32;39.92;;;;;;;;;;4958924;28;20129;-40
2023/01/10 00:15:35;;;;;;;118.85;39.80;;;;;;;;;;4955286;28;20118;-40
2023/01/10 00:18:02;;;;;;;116.97;38.80;;;;;;;;;;4956864;28;20044;-39
2023/01/10 00:20:29;;;;;;;124.97;38.65;;;;;;;;;;4959734;28;20047;-41
2023/01/10 00:22:56;;;;;;;117.80;39.22;;;;;;;;;;4961934;28;20380;-40
2023/01/10 00:25:23;;;;;;;142.43;42.30;;;;;;;;;;4963084;28;20122;-40
2023/01/10 00:28:00;;;;;;;115.32;40.33;;;;;;;;;;4960655;28;20042;-42
2023/01/10 00:30:27;;;;;;;126.93;39.42;;;;;;;;;;4962726;28;20096;-39
2023/01/10 00:32:55;;;;;;;154.38;42.05;;;;;;;;;;4957601;28;20050;-41
2023/01/10 00:35:22;;;;;;;121.97;39.70;;;;;;;;;;4959582;28;20497;-40
2023/01/10 00:37:48;;;;;;;110.68;40.25;;;;;;;;;;4958437;28;20482;-40
2023/01/10 00:40:15;;;;;;;169.07;45.38;;;;;;;;;;4962481;28;20046;-40
2023/01/10 00:45:27;;;;;;;140.95;41.42;;;;;;;;;;4955403;28;20047;-40
2023/01/10 00:47:53;;;;;;;130.05;40.55;;;;;;;;;;4956974;28;20039;-40
2023/01/10 00:50:19;;;;;;;137.93;39.95;;;;;;;;;;4959280;28;20047;-40
2023/01/10 00:52:46;;;;;;;126.88;39.28;;;;;;;;;;4959207;28;20039;-40
2023/01/10 00:55:12;;;;;;;154.75;41.97;;;;;;;;;;4957924;28;20042;-39
2023/01/10 00:57:39;;;;;;;118.15;39.22;;;;;;;;;;4956764;28;20502;-40
2023/01/10 01:00:08;;;;;;;125.47;40.95;;;;;;;;;;4957907;28;20039;-40
2023/01/10 01:02:34;;;;;;;128.95;38.90;;;;;;;;;;4957176;28;20048;-40
2023/01/10 01:05:01;;;;;;;122.50;39.00;;;;;;;;;;4958672;28;20506;-40
2023/01/10 01:07:27;;;;;;;143.30;40.75;;;;;;;;;;4957392;28;20043;-41
2023/01/10 01:12:39;;;;;;;129.30;38.95;;;;;;;;;;4956915;28;20486;-41
2023/01/10 01:15:06;;;;;;;134.23;42.67;;;;;;;;;;4955026;28;20042;-39
2023/01/10 01:17:32;;;;;;;141.98;40.55;;;;;;;;;;4957255;28;20533;-41
2023/01/10 01:19:59;;;;;;;123.63;40.15;;;;;;;;;;4958645;28;20490;-39
2023/01/10 01:22:25;;;;;;;164.95;43.13;;;;;;;;;;4958326;28;20548;-40
2023/01/10 01:24:52;;;;;;;126.35;38.10;;;;;;;;;;4954656;28;20038;-39
2023/01/10 01:27:19;;;;;;;124.80;39.90;;;;;;;;;;4955962;28;20075;-40
2023/01/10 01:29:46;;;;;;;145.65;40.47;;;;;;;;;;4958743;28;20512;-41
2023/01/10 01:32:12;;;;;;;130.57;40.33;;;;;;;;;;4959747;28;20070;-40
2023/01/10 01:34:39;;;;;;;146.13;41.97;;;;;;;;;;4958113;28;20046;-40
2023/01/10 01:37:06;;;;;;;153.55;41.38;;;;;;;;;;4957126;28;20111;-40
2023/01/10 01:39:32;;;;;;;150.02;43.45;;;;;;;;;;4955355;28;20042;-40
2023/01/10 01:41:59;;;;;;;133.05;41.15;;;;;;;;;;4954207;28;20035;-42
2023/01/10 01:44:30;;;;;;;161.02;44.00;;;;;;;;;;4957346;28;20083;-40
2023/01/10 01:47:08;;;;;;;131.52;39.92;;;;;;;;;;4957128;28;20170;-42
2023/01/10 01:49:37;;;;;;;152.50;41.75;;;;;;;;;;4961516;28;20043;-40
2023/01/10 01:52:10;;;;;;;146.02;41.00;;;;;;;;;;4955497;28;20053;-40
2023/01/10 01:54:36;;;;;;;114.07;38.55;;;;;;;;;;4953650;28;20043;-39
2023/01/10 01:57:05;;;;;;;137.32;41.30;;;;;;;;;;4954242;28;20102;-41
2023/01/10 01:59:36;;;;;;;114.30;38.30;;;;;;;;;;4958262;28;20545;-39
2023/01/10 02:02:07;;;;;;;147.90;42.05;;;;;;;;;;4956527;28;20043;-42
2023/01/10 02:04:47;;;;;;;141.20;41.58;;;;;;;;;;4956851;28;20719;-40
2023/01/10 02:07:14;;;;;;;161.85;41.08;;;;;;;;;;4956006;28;20043;-41
2023/01/10 02:09:50;;;;;;;139.90;41.28;;;;;;;;;;4954952;28;20031;-39
2023/01/10 02:12:17;;;;;;;155.63;43.50;;;;;;;;;;4955364;28;20066;-42
2023/01/10 02:14:46;;;;;;;121.35;40.40;;;;;;;;;;4954169;28;20036;-41
2023/01/10 02:17:12;;;;;;;129.00;40.70;;;;;;;;;;4955951;28;20723;-41
2023/01/10 02:19:45;;;;;;;150.27;43.45;;;;;;;;;;4956956;28;20755;-40
2023/01/10 02:22:23;;;;;;;165.57;41.93;;;;;;;;;;4959752;28;20126;-40
2023/01/10 02:24:53;;;;;;;142.90;41.88;;;;;;;;;;4955989;28;20042;-39
2023/01/10 02:27:31;;;;;;;153.07;43.67;;;;;;;;;;4953888;28;20405;-39
2023/01/10 02:30:17;;;;;;;137.25;40.53;;;;;;;;;;4954279;28;20111;-40
2023/01/10 02:32:55;;;;;;;152.73;44.38;;;;;;;;;;4957160;28;20051;-42
2023/01/10 02:35:38;;;;;;;157.60;44.25;;;;;;;;;;4957814;28;20039;-40
2023/01/10 02:38:19;;;;;;;170.48;43.50;;;;;;;;;;4957665;28;20054;-42
2023/01/10 02:41:06;;;;;;;160.52;43.35;;;;;;;;;;4964530;28;20382;-41
2023/01/10 02:43:43;;;;;;;152.65;44.03;;;;;;;;;;4964426;28;20039;-39
2023/01/10 02:46:15;;;;;;;179.00;45.45;;;;;;;;;;4959563;28;20044;-40
2023/01/10 02:48:42;;;;;;;150.70;42.83;;;;;;;;;;4959550;28;20049;-40
2023/01/10 02:51:16;;;;;;;137.52;44.00;;;;;;;;;;4958266;28;20387;-40
2023/01/10 02:53:42;;;;;;;;;;;;;;;;;;4961355;28;20494;-42
2023/01/10 02:56:17;;;;;;;146.57;40.40;;;;;;;;;;4959528;28;19970;-40
2023/01/10 02:59:02;;;;;;;169.60;45.38;;;;;;;;;;4963000;28;20468;-40
2023/01/10 03:01:35;;;;;;;149.18;45.03;;;;;;;;;;4961040;28;20039;-41
2023/01/10 03:04:15;;;;;;;146.93;43.28;;;;;;;;;;4957813;28;20424;-43
2023/01/10 03:06:45;;;;;;;145.13;41.47;;;;;;;;;;4958171;28;20046;-41
2023/01/10 03:09:11;;;;;;;139.32;42.95;;;;;;;;;;4958338;28;20098;-40
2023/01/10 03:11:41;;;;;;;146.25;42.05;;;;;;;;;;4957804;28;20040;-42
2023/01/10 03:14:13;;;;;;;142.15;43.05;;;;;;;;;;4960261;28;21059;-40
2023/01/10 03:16:42;;;;;;;148.48;44.17;;;;;;;;;;4960902;28;20110;-41
2023/01/10 03:19:14;;;;;;;155.95;43.13;;;;;;;;;;4958489;28;20054;-40
2023/01/10 03:21:42;;;;;;;131.35;41.47;;;;;;;;;;4956219;28;20042;-41
2023/01/10 03:24:27;;;;;;;132.43;40.72;;;;;;;;;;4957427;28;20122;-39
2023/01/10 03:26:57;;;;;;;149.85;40.40;;;;;;;;;;4956608;28;20035;-40
2023/01/10 03:29:27;;;;;;;143.68;43.40;;;;;;;;;;4959691;28;20126;-40
2023/01/10 03:31:56;;;;;;;142.80;42.17;;;;;;;;;;4959828;28;20509;-41
2023/01/10 03:34:23;;;;;;;149.68;43.88;;;;;;;;;;4963546;28;20039;-39
2023/01/10 03:36:59;;;;;;;154.60;41.25;;;;;;;;;;4957445;28;20043;-40
2023/01/10 03:39:33;;;;;;;131.43;40.42;;;;;;;;;;4959450;28;20081;-40
2023/01/10 03:42:12;;;;;;;140.95;41.60;;;;;;;;;;4956501;28;20122;-40
2023/01/10 03:44:46;;;;;;;139.68;40.75;;;;;;;;;;4959131;28;20039;-40
2023/01/10 03:47:16;;;;;;;128.80;39.42;;;;;;;;;;4959112;28;20035;-39
2023/01/10 03:49:46;;;;;;;138.65;41.38;;;;;;;;;;4959636;28;20035;-41
2023/01/10 03:52:14;;;;;;;158.75;40.75;;;;;;;;;;4958257;28;20133;-39
2023/01/10 03:54:41;;;;;;;159.30;42.33;;;;;;;;;;4957203;28;20055;-39
2023/01/10 03:57:13;;;;;;;142.75;42.67;;;;;;;;;;4958749;28;20134;-39
2023/01/10 03:59:39;;;;;;;128.25;40.90;;;;;;;;;;4959185;28;20422;-40
2023/01/10 04:02:06;;;;;;;148.98;42.58;;;;;;;;;;4959146;28;20051;-40
2023/01/10 04:04:33;;;;;;;128.77;39.63;;;;;;;;;;4957291;28;20962;-40
2023/01/10 04:06:59;;;;;;;131.60;39.30;;;;;;;;;;4957021;28;20384;-40
2023/01/10 04:09:25;;;;;;;169.02;44.15;;;;;;;;;;4958488;28;20497;-39
2023/01/10 04:11:52;;;;;;;141.63;42.20;;;;;;;;;;4955516;28;20043;-40
2023/01/10 04:14:18;;;;;;;140.32;39.13;;;;;;;;;;4957971;28;20498;-40
2023/01/10 04:16:45;;;;;;;148.25;41.30;;;;;;;;;;4959047;28;20477;-40
2023/01/10 04:19:11;;;;;;;159.45;43.05;;;;;;;;;;4957091;28;20571;-41
2023/01/10 04:21:38;;;;;;;134.82;38.75;;;;;;;;;;4960427;28;20046;-40
2023/01/10 04:24:04;;;;;;;113.03;36.75;;;;;;;;;;4960708;28;20050;-40
2023/01/10 04:26:31;;;;;;;124.18;38.88;;;;;;;;;;4958504;28;20568;-40
2023/01/10 04:28:57;;;;;;;108.85;35.72;;;;;;;;;;4959552;28;20036;-39
2023/01/10 04:31:25;;;;;;;157.40;41.42;;;;;;;;;;4958595;28;20038;-40
2023/01/10 04:33:52;;;;;;;129.95;39.22;;;;;;;;;;4960055;28;20050;-41
2023/01/10 04:36:19;;;;;;;153.50;42.35;;;;;;;;;;4957811;28;20046;-40
2023/01/10 04:38:45;;;;;;;148.40;40.67;;;;;;;;;;4957551;28;20043;-39
2023/01/10 04:41:12;;;;;;;137.57;41.03;;;;;;;;;;4958837;28;20054;-40
2023/01/10 04:43:38;;;;;;;144.25;38.80;;;;;;;;;;4957649;28;20047;-39
2023/01/10 04:46:05;;;;;;;132.98;39.10;;;;;;;;;;4956271;28;20490;-40
2023/01/10 04:48:32;;;;;;;152.75;41.88;;;;;;;;;;4957691;28;20051;-39
2023/01/10 04:50:58;;;;;;;134.05;41.65;;;;;;;;;;4955223;28;20047;-40
2023/01/10 04:53:25;;;;;;;129.80;39.53;;;;;;;;;;4957620;28;20054;-39
2023/01/10 04:55:52;;;;;;;154.45;43.08;;;;;;;;;;4958523;28;20058;-40
2023/01/10 04:58:18;;;;;;;167.88;44.88;;;;;;;;;;4957243;28;20049;-39
2023/01/10 05:00:44;;;;;;;137.30;43.10;;;;;;;;;;4956389;28;20043;-41
2023/01/10 05:03:11;;;;;;;137.60;39.53;;;;;;;;;;4953603;28;20094;-40
2023/01/10 05:05:37;;;;;;;136.98;42.75;;;;;;;;;;4958732;28;20043;-40
2023/01/10 05:08:04;;;;;;;141.52;40.20;;;;;;;;;;4958447;28;20035;-40
2023/01/10 05:10:30;;;;;;;158.85;40.03;;;;;;;;;;4957736;28;20846;-41
2023/01/10 05:12:57;;;;;;;128.68;39.53;;;;;;;;;;4956145;28;20409;-40
2023/01/10 05:15:24;;;;;;;132.73;38.28;;;;;;;;;;4956904;28;20398;-40
2023/01/10 05:17:56;;;;;;;167.90;41.42;;;;;;;;;;4955498;28;20688;-40
2023/01/10 05:20:22;;;;;;;178.10;47.47;;;;;;;;;;4957905;28;20043;-40
2023/01/10 05:22:49;;;;;;;134.57;40.90;;;;;;;;;;4962074;28;20043;-39
2023/01/10 05:25:15;;;;;;;180.98;45.28;;;;;;;;;;4960656;28;20045;-40
2023/01/10 05:27:42;;;;;;;143.98;43.88;;;;;;;;;;4957197;28;20042;-39
2023/01/10 05:30:10;;;;;;;174.32;44.70;;;;;;;;;;4961161;28;20081;-40
2023/01/10 05:32:36;;;;;;;165.98;42.05;;;;;;;;;;4957730;28;20046;-39
2023/01/10 05:35:03;;;;;;;133.10;43.47;;;;;;;;;;4958294;28;20425;-39
2023/01/10 05:37:29;;;;;;;148.85;40.67;;;;;;;;;;4958227;28;20035;-39
2023/01/10 05:39:56;;;;;;;172.90;43.22;;;;;;;;;;4955721;28;20053;-39
2023/01/10 05:42:22;;;;;;;151.85;42.15;;;;;;;;;;4954017;28;20046;-39
2023/01/10 05:44:49;;;;;;;149.45;41.45;;;;;;;;;;4957041;28;20064;-39
2023/01/10 05:47:15;;;;;;;183.43;47.42;;;;;;;;;;4957642;28;20050;-40
2023/01/10 05:49:42;;;;;;;157.23;44.92;;;;;;;;;;4957155;28;20047;-39
2023/01/10 05:52:08;;;;;;;156.43;43.17;;;;;;;;;;4955622;28;20050;-40
2023/01/10 05:54:34;;;;;;;153.98;41.55;;;;;;;;;;4955110;28;20035;-40
2023/01/10 05:57:01;;;;;;;136.48;42.22;;;;;;;;;;4954916;28;20055;-41
2023/01/10 05:59:27;;;;;;;160.27;42.75;;;;;;;;;;4957520;28;20114;-40
2023/01/10 06:01:54;;;;;;;154.75;44.30;;;;;;;;;;4956450;28;20122;-40
2023/01/10 06:04:21;;;;;;;176.50;46.13;;;;;;;;;;4955146;28;20142;-40
2023/01/10 06:06:47;;;;;;;151.20;44.72;;;;;;;;;;4956179;28;20046;-40
2023/01/10 06:09:13;;;;;;;147.13;42.25;;;;;;;;;;4953742;28;20047;-39
2023/01/10 06:11:40;;;;;;;147.13;44.35;;;;;;;;;;4957981;28;20059;-41
2023/01/10 06:14:06;;;;;;;147.18;47.47;;;;;;;;;;4955554;28;20032;-40
2023/01/10 06:16:33;;;;;;;148.35;45.58;;;;;;;;;;4961285;28;20041;-40
2023/01/10 06:18:59;;;;;;;165.25;46.95;;;;;;;;;;4955805;28;20089;-41
2023/01/10 06:21:26;;;;;;;156.98;43.60;;;;;;;;;;4954961;28;20040;-40
2023/01/10 06:23:52;;;;;;;156.57;42.90;;;;;;;;;;4956066;28;20047;-40
2023/01/10 06:26:19;;;;;;;197.77;46.47;;;;;;;;;;4957238;28;20050;-40
2023/01/10 06:28:45;;;;;;;161.65;45.15;;;;;;;;;;4956498;28;20045;-40
2023/01/10 06:31:13;;;;;;;185.07;46.97;;;;;;;;;;4952280;28;20042;-40
2023/01/10 06:33:42;;;;;;;181.43;45.22;;;;;;;;;;4954140;28;20074;-39
2023/01/10 06:36:09;;;;;;;148.43;42.08;;;;;;;;;;4954802;28;20114;-40
2023/01/10 06:38:36;;;;;;;156.00;41.42;;;;;;;;;;4955646;28;20069;-41
2023/01/10 06:41:11;;;;;;;161.88;41.88;;;;;;;;;;4955709;28;20047;-40
2023/01/10 06:43:45;;;;;;;144.70;40.65;;;;;;;;;;4959542;28;20046;-40
2023/01/10 06:46:15;;;;;;;192.75;44.50;;;;;;;;;;4955156;28;20047;-40
2023/01/10 06:48:43;;;;;;;172.38;42.55;;;;;;;;;;4954016;28;20058;-40
2023/01/10 06:51:10;;;;;;;134.55;41.72;;;;;;;;;;4953221;28;20574;-39
2023/01/10 06:53:37;;;;;;;171.43;43.58;;;;;;;;;;4957201;28;20101;-40
2023/01/10 06:56:04;;;;;;;154.43;40.85;;;;;;;;;;4957306;28;20040;-40
2023/01/10 06:58:31;;;;;;;162.50;41.63;;;;;;;;;;4959928;28;20501;-41
2023/01/10 07:00:58;;;;;;;154.18;41.90;;;;;;;;;;4954261;28;20409;-40
2023/01/10 07:03:24;;;;;;;145.25;40.95;;;;;;;;;;4954757;28;20059;-40
2023/01/10 07:05:51;;;;;;;142.60;39.97;;;;;;;;;;4954736;28;20058;-40
2023/01/10 07:08:17;;;;;;;208.93;43.95;;;;;;;;;;4956366;28;20062;-40
2023/01/10 07:10:44;;;;;;;152.27;41.38;;;;;;;;;;4957984;28;20409;-40
2023/01/10 07:13:10;;;;;;;167.43;40.50;;;;;;;;;;4954586;28;20039;-41
2023/01/10 07:15:37;;;;;;;151.05;39.30;;;;;;;;;;4956882;28;20094;-41
2023/01/10 07:18:03;;;;;;;138.80;38.20;;;;;;;;;;4953023;28;20053;-39
2023/01/10 07:20:30;;;;;;;168.95;42.17;;;;;;;;;;4952190;28;20359;-40
2023/01/10 07:22:57;;;;;;;175.88;42.00;;;;;;;;;;4959599;28;20035;-41
2023/01/10 07:25:25;;;;;;;150.40;39.03;;;;;;;;;;4960010;28;20876;-40
2023/01/10 07:27:54;;;;;;;145.35;39.58;;;;;;;;;;4961830;28;20410;-40
2023/01/10 07:30:22;;;;;;;183.25;42.88;;;;;;;;;;4955513;28;20058;-42
2023/01/10 07:32:57;;;;;;;156.85;42.17;;;;;;;;;;4958920;28;20098;-40
2023/01/10 07:35:24;;;;;;;141.52;37.95;;;;;;;;;;4961909;28;20473;-40
2023/01/10 07:37:50;;;;;;;145.60;38.47;;;;;;;;;;4959478;28;20032;-40
2023/01/10 07:40:17;;;;;;;182.38;43.58;;;;;;;;;;4958238;28;20047;-41
2023/01/10 07:42:43;;;;;;;142.77;39.70;;;;;;;;;;4959187;28;20046;-40
2023/01/10 07:45:10;;;;;;;179.82;40.58;;;;;;;;;;4956219;28;20066;-41
2023/01/10 07:47:36;;;;;;;159.93;40.78;;;;;;;;;;4959484;28;20070;-40
2023/01/10 07:50:03;;;;;;;147.20;39.75;;;;;;;;;;4958532;28;20035;-40
2023/01/10 07:52:31;;;;;;;181.13;40.78;;;;;;;;;;4958617;28;20043;-39
2023/01/10 07:54:57;;;;;;;153.68;41.15;;;;;;;;;;4957395;28;20100;-39
2023/01/10 07:57:24;;;;;;;138.38;38.95;;;;;;;;;;4956239;28;20047;-39
2023/01/10 07:59:50;;;;;;;146.77;38.50;;;;;;;;;;4958110;28;20039;-42
2023/01/10 08:02:17;;;;;;;162.98;37.88;;;;;;;;;;4959212;28;20068;-40
2023/01/10 08:04:43;;;;;;;150.15;37.40;;;;;;;;;;4959894;28;20057;-40
2023/01/10 08:07:10;;;;;;;178.73;40.25;;;;;;;;;;4957147;28;20043;-40
2023/01/10 08:09:36;;;;;;;161.80;39.35;;;;;;;;;;4966220;28;20050;-39
2023/01/10 08:12:03;;;;;;;158.90;37.65;;;;;;;;;;4957772;28;20051;-39
2023/01/10 08:14:29;;;;;;;165.40;38.78;;;;;;;;;;4959566;28;20043;-40
2023/01/10 08:16:56;;;;;;;156.90;39.50;;;;;;;;;;4959912;28;20043;-40
2023/01/10 08:19:22;;;;;;;157.73;39.05;;;;;;;;;;4966140;28;20077;-39
2023/01/10 08:21:49;;;;;;;163.80;38.58;;;;;;;;;;4967164;28;20050;-39
2023/01/10 08:24:15;;;;;;;142.43;38.95;;;;;;;;;;4961017;28;20050;-40
2023/01/10 08:26:41;;;;;;;149.02;36.85;;;;;;;;;;4959301;28;20117;-40
2023/01/10 08:29:08;;;;;;;146.60;39.42;;;;;;;;;;4959884;28;20039;-40
2023/01/10 08:31:34;;;;;;;156.55;38.63;;;;;;;;;;4958412;28;20050;-40
2023/01/10 08:34:01;;;;;;;120.45;33.63;;;;;;;;;;4955821;28;20050;-40
2023/01/10 08:36:28;;;;;;;155.25;38.75;;;;;;;;;;4954733;28;20098;-40
2023/01/10 08:38:55;;;;;;;175.60;42.03;;;;;;;;;;4956987;28;20130;-41
2023/01/10 08:41:21;;;;;;;173.80;38.53;;;;;;;;;;4958635;28;20047;-45
2023/01/10 08:43:49;;;;;;;161.07;38.85;;;;;;;;;;4962196;28;20054;-44
2023/01/10 08:46:16;;;;;;;207.52;39.92;;;;;;;;;;4954934;28;20043;-45
2023/01/10 08:48:43;;;;;;;152.98;35.40;;;;;;;;;;4955075;28;20043;-44
2023/01/10 08:51:09;;;;;;;130.85;35.75;;;;;;;;;;4954881;28;20650;-46
2023/01/10 08:53:37;;;;;;;156.02;39.53;;;;;;;;;;4958153;28;20035;-48
2023/01/10 08:56:04;;;;;;;134.43;35.08;;;;;;;;;;4957532;28;20039;-46
2023/01/10 08:58:31;;;;;;;161.50;40.35;;;;;;;;;;4962119;28;20126;-45
2023/01/10 09:00:57;;;;;;;133.30;35.15;;;;;;;;;;4955993;28;20054;-42
2023/01/10 09:03:24;;;;;;;133.82;35.65;;;;;;;;;;4954692;28;20129;-41
2023/01/10 09:05:50;;;;;;;150.48;36.00;;;;;;;;;;4958309;28;20127;-46
2023/01/10 09:08:17;;;;;;;163.90;38.03;;;;;;;;;;4956479;28;20047;-46
2023/01/10 09:10:43;;;;;;;135.93;35.17;;;;;;;;;;4963054;28;20047;-46
2023/01/10 09:13:10;;;;;;;151.95;38.28;;;;;;;;;;4956353;28;20554;-43
2023/01/10 09:15:37;;;;;;;146.05;37.60;;;;;;;;;;4961187;28;20054;-43
2023/01/10 09:18:05;;;;;;;143.77;34.42;;;;;;;;;;4958748;28;20030;-39
2023/01/10 09:20:32;;;;;;;119.30;34.47;;;;;;;;;;4958263;28;20047;-42
2023/01/10 09:23:03;;;;;;;139.68;35.90;;;;;;;;;;4958561;28;20039;-44
2023/01/10 09:25:29;;;;;;;125.47;33.08;;;;;;;;;;4957920;28;20134;-40
2023/01/10 09:27:57;;;;;;;140.57;35.78;;;;;;;;;;4955376;28;20070;-42
2023/01/10 09:30:24;;;;;;;146.68;38.35;;;;;;;;;;4956528;28;20051;-40
2023/01/10 09:32:52;;;;;;;127.65;34.15;;;;;;;;;;4955834;28;20094;-42
2023/01/10 09:35:18;;;;;;;137.30;36.92;;;;;;;;;;4957223;28;20054;-39
2023/01/10 09:37:45;;;;;;;145.73;35.25;;;;;;;;;;4958304;28;20062;-41
2023/01/10 09:40:29;;;;;;;136.90;33.80;;;;;;;;;;4955085;28;20042;-39
2023/01/10 09:43:14;;;;;;;190.18;39.03;;;;;;;;;;4955102;28;20039;-39
2023/01/10 09:45:46;;;;;;;113.57;34.45;;;;;;;;;;4954072;28;20046;-44
2023/01/10 09:48:16;;;;;;;138.27;35.17;;;;;;;;;;4952877;28;20916;-45
2023/01/10 09:50:50;;;;;;;117.30;32.17;;;;;;;;;;4956059;28;20465;-39
2023/01/10 09:53:21;;;;;;;123.50;32.80;;;;;;;;;;4957442;28;20079;-42
2023/01/10 09:55:50;;;;;;;110.90;30.58;;;;;;;;;;4956349;28;20039;-48
2023/01/10 09:58:19;;;;;;;141.45;35.55;;;;;;;;;;4954785;28;20074;-39
2023/01/10 10:00:51;;;;;;;114.78;31.88;;;;;;;;;;4957260;28;20626;-40
2023/01/10 10:03:22;;;;;;;115.47;32.47;;;;;;;;;;4954681;28;20059;-42
2023/01/10 10:05:49;;;;;;;124.03;32.50;;;;;;;;;;4955954;28;20509;-40
2023/01/10 10:08:18;;;;;;;166.63;35.67;;;;;;;;;;4957164;28;20078;-40
2023/01/10 10:11:02;;;;;;;116.20;33.42;;;;;;;;;;4957227;28;20035;-40
2023/01/10 10:13:48;;;;;;;145.27;37.20;;;;;;;;;;4958216;28;20045;-39
2023/01/10 10:16:26;;;;;;;162.98;36.63;;;;;;;;;;4957034;28;20047;-40
2023/01/10 10:18:52;;;;;;;104.00;28.63;;;;;;;;;;4955266;28;20069;-39
2023/01/10 10:21:22;;;;;;;104.38;30.55;;;;;;;;;;4953407;28;20470;-40
2023/01/10 10:23:48;;;;;;;138.02;32.33;;;;;;;;;;4952745;28;20073;-39
2023/01/10 10:26:31;;;;;;;146.18;35.22;;;;;;;;;;4952565;28;20043;-39
2023/01/10 10:29:07;;;;;;;135.43;33.60;;;;;;;;;;4959870;28;20126;-40
2023/01/10 10:31:36;;;;;;;98.70;28.02;;;;;;;;;;4961455;28;20098;-39
2023/01/10 10:34:15;;;;;;;119.95;32.38;;;;;;;;;;4953735;28;20051;-41
2023/01/10 10:36:44;;;;;;;130.15;35.15;;;;;;;;;;4954330;28;20053;-39
2023/01/10 10:39:16;;;;;;;110.72;31.52;;;;;;;;;;4953100;28;20095;-39
2023/01/10 10:41:45;;;;;;;121.00;31.40;;;;;;;;;;4956004;28;20067;-39
2023/01/10 10:44:21;;;;;;;108.88;28.17;;;;;;;;;;4955878;28;20039;-41
2023/01/10 10:46:48;;;;;;;96.13;27.35;;;;;;;;;;4957525;28;20082;-39
2023/01/10 10:49:22;;;;;;;126.78;30.92;;;;;;;;;;4953805;28;20094;-40
2023/01/10 10:51:50;;;;;;;107.95;28.92;;;;;;;;;;4953385;28;20047;-39
2023/01/10 10:54:17;;;;;;;115.85;29.40;;;;;;;;;;4953412;28;20043;-39
2023/01/10 10:56:44;;;;;;;91.93;26.58;;;;;;;;;;4956910;28;20027;-39
2023/01/10 10:59:16;;;;;;;93.60;27.80;;;;;;;;;;4961391;28;20502;-40
2023/01/10 11:01:45;;;;;;;136.18;31.05;;;;;;;;;;4960728;28;20130;-40
2023/01/10 11:04:14;;;;;;;123.45;30.60;;;;;;;;;;4957667;28;20129;-41
2023/01/10 11:06:47;;;;;;;99.88;32.63;;;;;;;;;;4957557;28;20073;-39
2023/01/10 11:09:17;;;;;;;129.05;35.72;;;;;;;;;;4959361;28;20043;-38
2023/01/10 11:11:45;;;;;;;122.88;36.22;;;;;;;;;;4958706;28;20041;-40
2023/01/10 11:14:12;;;;;;;105.60;32.17;;;;;;;;;;4956709;28;20102;-41
2023/01/10 11:16:40;;;;;;;111.50;31.25;;;;;;;;;;4962721;28;20399;-40
2023/01/10 11:19:09;;;;;;;90.90;29.33;;;;;;;;;;4959816;28;20086;-41
2023/01/10 11:21:37;;;;;;;102.63;29.00;;;;;;;;;;4961847;28;20058;-40
2023/01/10 11:24:04;;;;;;;97.57;27.95;;;;;;;;;;4958845;28;20808;-40
2023/01/10 11:26:33;;;;;;;99.85;27.02;;;;;;;;;;4960335;28;20497;-40
2023/01/10 11:29:07;;;;;;;117.25;28.98;;;;;;;;;;4960230;28;20130;-40
2023/01/10 11:31:35;;;;;;;100.95;26.60;;;;;;;;;;4960166;28;20532;-39
2023/01/10 11:34:05;;;;;;;95.22;26.73;;;;;;;;;;4957280;28;20482;-40
2023/01/10 11:36:51;;;;;;;103.25;28.08;;;;;;;;;;4956960;28;20050;-40
2023/01/10 11:39:17;;;;;;;69.20;23.25;;;;;;;;;;4956622;28;20043;-39
2023/01/10 11:41:44;;;;;;;95.80;22.92;;;;;;;;;;4974523;28;20053;-40
2023/01/10 11:44:24;;;;;;;90.32;24.50;;;;;;;;;;4958828;28;20039;-41
2023/01/10 11:46:54;;;;;;;123.18;29.52;;;;;;;;;;4962322;28;20058;-41
2023/01/10 11:49:29;;;;;;;114.28;27.98;;;;;;;;;;4958664;28;20118;-41
2023/01/10 11:51:58;;;;;;;89.82;27.52;;;;;;;;;;4957591;28;20445;-39
2023/01/10 11:54:26;;;;;;;107.15;27.38;;;;;;;;;;4955024;28;20047;-41
2023/01/10 11:57:13;;;;;;;100.38;28.13;;;;;;;;;;4958983;28;20041;-40
2023/01/10 11:59:48;;;;;;;112.75;28.30;;;;;;;;;;4959648;28;20063;-41
2023/01/10 12:02:23;;;;;;;104.72;28.67;;;;;;;;;;4957855;28;20039;-40
2023/01/10 12:04:50;;;;;;;116.47;29.70;;;;;;;;;;4959446;28;20046;-40
2023/01/10 12:07:18;;;;;;;125.60;32.40;;;;;;;;;;4957300;28;20142;-40
2023/01/10 12:10:01;;;;;;;114.13;31.17;;;;;;;;;;4960321;28;20051;-40
2023/01/10 12:12:33;;;;;;;108.15;31.20;;;;;;;;;;4961136;28;20050;-41
2023/01/10 12:15:19;;;;;;;99.05;30.33;;;;;;;;;;4955849;28;20116;-42
2023/01/10 12:17:46;;;;;;;128.80;40.15;;;;;;;;;;4958679;28;20110;-41
2023/01/10 12:20:13;;;;;;;138.88;43.65;;;;;;;;;;4959491;28;20050;-39
2023/01/10 12:22:41;;;;;;;149.18;41.13;;;;;;;;;;4962827;28;20468;-43
2023/01/10 12:25:15;;;;;;;113.75;37.10;;;;;;;;;;4956720;28;20055;-36
2023/01/10 12:27:43;;;;;;;118.20;40.13;;;;;;;;;;4960036;28;20057;-40
2023/01/10 12:30:13;;;;;;;140.85;39.30;;;;;;;;;;4955258;28;20071;-39
2023/01/10 12:32:45;;;;;;;149.95;43.83;;;;;;;;;;4957961;28;20049;-40
2023/01/10 12:35:24;;;;;;;154.37;37.97;;;;;;;;;;4957478;28;20051;-43
2023/01/10 12:37:54;;;;;;;123.38;34.03;;;;;;;;;;4967657;28;20051;-41
2023/01/10 12:40:36;;;;;;;152.60;38.40;;;;;;;;;;4968071;28;20058;-40
2023/01/10 12:46:29;;;;;;;102.60;30.17;;;;;;;;;;4958910;28;20572;-39
2023/01/10 12:49:24;;;;;;;116.18;32.28;;;;;;;;;;4956916;28;20035;-40
2023/01/10 12:51:53;;;;;;;107.22;30.65;;;;;;;;;;4957648;28;20424;-40
2023/01/10 12:54:22;;;;;;;164.98;32.63;;;;;;;;;;4956443;28;20280;-39
2023/01/10 12:56:49;;;;;;;99.43;28.10;;;;;;;;;;4957004;28;20036;-39
2023/01/10 12:59:24;;;;;;;87.63;28.85;;;;;;;;;;4957609;28;20553;-42
2023/01/10 13:02:06;;;;;;;101.60;30.35;;;;;;;;;;4958550;28;20054;-39
2023/01/10 13:04:34;;;;;;;115.22;31.23;;;;;;;;;;4956299;28;20050;-40
2023/01/10 13:07:01;;;;;;;104.03;30.55;;;;;;;;;;4956057;28;20058;-39
2023/01/10 13:09:28;;;;;;;99.35;30.65;;;;;;;;;;4958254;28;20067;-39
2023/01/10 13:12:13;;;;;;;92.50;27.38;;;;;;;;;;4959055;28;20424;-39
2023/01/10 13:14:44;;;;;;;91.55;26.27;;;;;;;;;;4957558;28;20039;-40
2023/01/10 13:17:29;;;;;;;101.57;29.83;;;;;;;;;;4962366;28;20446;-39
2023/01/10 13:20:14;;;;;;;125.53;37.53;;;;;;;;;;4962207;28;20035;-39
2023/01/10 13:22:50;;;;;;;131.43;33.08;;;;;;;;;;4962023;28;20075;-39
2023/01/10 13:25:38;;;;;;;201.38;57.40;;;;;;;;;;4955778;28;20051;-38
2023/01/10 13:28:06;;;;;;;243.90;77.07;;;;;;;;;;4955232;28;20034;-39
2023/01/10 13:30:36;;;;;;;115.88;40.47;;;;;;;;;;4954248;28;20051;-42
2023/01/10 13:33:07;;;;;;;92.10;31.33;;;;;;;;;;4955110;28;20047;-41
2023/01/10 13:35:41;;;;;;;80.13;27.83;;;;;;;;;;4958666;28;20081;-39
2023/01/10 13:38:18;;;;;;;89.50;28.63;;;;;;;;;;4958071;28;20045;-41
2023/01/10 13:41:04;;;;;;;107.55;30.40;;;;;;;;;;4960573;28;20584;-39
2023/01/10 13:43:35;;;;;;;120.47;31.88;;;;;;;;;;4959950;28;20058;-39
2023/01/10 13:46:13;;;;;;;101.03;30.83;;;;;;;;;;4955769;28;20125;-39
2023/01/10 13:48:40;;;;;;;86.90;31.02;;;;;;;;;;4953933;28;20058;-40
2023/01/10 13:51:17;;;;;;;105.57;31.55;;;;;;;;;;4954826;28;20114;-40
2023/01/10 13:53:56;;;;;;;110.18;32.60;;;;;;;;;;4956294;28;20050;-41
2023/01/10 13:56:28;;;;;;;139.13;35.42;;;;;;;;;;4956723;28;20070;-41
2023/01/10 14:04:31;;;;;;;122.68;31.52;;;;;;;;;;4956514;28;20545;-40
2023/01/10 14:06:59;;;;;;;106.45;31.55;;;;;;;;;;4954023;28;20069;-40
2023/01/10 14:09:33;;;;;;;93.90;29.80;;;;;;;;;;4953424;28;20049;-39
2023/01/10 14:12:01;;;;;;;103.93;31.25;;;;;;;;;;4953601;28;20036;-41
2023/01/10 14:14:32;;;;;;;96.07;30.10;;;;;;;;;;4956759;28;20055;-40
2023/01/10 14:17:11;;;;;;;101.35;30.45;;;;;;;;;;4957816;28;20069;-39
2023/01/10 14:19:38;;;;;;;99.40;29.60;;;;;;;;;;4958867;28;20051;-39
2023/01/10 14:22:05;;;;;;;94.85;32.20;;;;;;;;;;4954916;28;20051;-39
2023/01/10 14:24:38;;;;;;;105.05;32.80;;;;;;;;;;4955691;28;20039;-42
2023/01/10 14:27:06;;;;;;;96.23;32.73;;;;;;;;;;4953974;28;20053;-39
2023/01/10 14:29:32;;;;;;;89.63;31.73;;;;;;;;;;4956456;28;20293;-40
2023/01/10 14:32:00;;;;;;;97.18;33.28;;;;;;;;;;4956888;28;20045;-40
2023/01/10 14:34:28;;;;;;;117.00;35.92;;;;;;;;;;4955372;28;20055;-39
2023/01/10 14:36:59;;;;;;;92.97;33.25;;;;;;;;;;4955279;28;20046;-39